Time;durP1;ratioP1;P1;durP2;ratioP2;P2;SDS_P1;SDS_P2;PMS_P1;PMS_P2;Temp;Humidity;BMP_temperature;BMP_pressure;BME280_temperature;BME280_humidity;BME280_pressure;Samples;Min_cycle;Max_cycle;Signal;HPM_P1;HPM_P2
2022/06/27 00:02:26;;;;;;;5.47;3.15;;;;;;;17.85;100.00;100131.41;21071403;28;20052;-77
2022/06/27 00:12:28;;;;;;;8.13;2.80;;;;;;;17.91;100.00;100153.13;21071888;28;20036;-78
2022/06/27 00:22:29;;;;;;;5.65;2.97;;;;;;;18.08;100.00;100229.13;21071189;28;20467;-81
2022/06/27 00:32:31;;;;;;;6.68;3.30;;;;;;;18.27;100.00;100282.09;21076007;28;20569;-80
2022/06/27 00:42:33;;;;;;;5.68;2.83;;;;;;;18.29;100.00;100260.78;21075362;28;20071;-79
2022/06/27 00:52:36;;;;;;;5.20;2.45;;;;;;;17.84;100.00;100014.00;21068466;28;20059;-77
2022/06/27 01:02:39;;;;;;;5.95;2.65;;;;;;;17.69;100.00;100009.47;21071755;28;20044;-79
2022/06/27 01:12:41;;;;;;;4.53;2.40;;;;;;;17.60;100.00;100087.59;21163169;28;20047;-79
2022/06/27 01:22:43;;;;;;;4.30;2.30;;;;;;;17.62;100.00;100061.00;21151616;28;20055;-77
2022/06/27 01:32:45;;;;;;;5.03;2.65;;;;;;;17.65;100.00;100098.78;21148592;28;20051;-76
2022/06/27 01:42:47;;;;;;;6.10;3.20;;;;;;;17.90;100.00;100134.69;21148457;28;20491;-75
2022/06/27 01:52:51;;;;;;;5.20;2.92;;;;;;;18.03;100.00;100146.38;21148231;28;20101;-74
2022/06/27 02:02:52;;;;;;;6.33;2.80;;;;;;;18.07;100.00;100116.16;21162094;28;20083;-74
2022/06/27 02:12:54;;;;;;;4.70;2.80;;;;;;;17.78;100.00;100064.66;21162689;28;20056;-73
2022/06/27 02:22:56;;;;;;;6.28;3.17;;;;;;;17.76;100.00;100095.63;21162864;28;20051;-73
2022/06/27 02:32:57;;;;;;;4.88;3.22;;;;;;;17.74;100.00;100081.63;21160951;28;20597;-74
2022/06/27 02:43:00;;;;;;;6.47;3.63;;;;;;;17.64;100.00;100054.72;21160474;28;20051;-72
2022/06/27 02:53:09;;;;;;;6.15;4.20;;;;;;;17.66;100.00;100078.47;21160120;28;20403;-72
2022/06/27 03:03:13;;;;;;;7.60;4.15;;;;;;;17.50;100.00;100057.22;21158380;28;20101;-70
2022/06/27 03:13:15;;;;;;;6.07;4.03;;;;;;;17.51;100.00;100048.31;21157259;28;20557;-71
2022/06/27 03:23:18;;;;;;;7.18;4.97;;;;;;;17.49;100.00;100052.00;21158413;28;20043;-70
2022/06/27 03:33:19;;;;;;;8.20;5.68;;;;;;;17.40;100.00;100055.94;21155569;28;20040;-70
2022/06/27 03:43:21;;;;;;;15.75;10.45;;;;;;;17.29;100.00;100090.84;21155642;28;20147;-70
2022/06/27 03:53:22;;;;;;;14.77;10.15;;;;;;;17.34;100.00;100077.41;21153854;28;20055;-70
2022/06/27 04:03:24;;;;;;;22.27;12.30;;;;;;;17.31;100.00;100125.19;21153437;28;20058;-70
2022/06/27 04:13:26;;;;;;;19.58;13.35;;;;;;;17.27;100.00;100103.31;21105462;28;20477;-69
2022/06/27 04:23:27;;;;;;;18.98;13.32;;;;;;;17.31;100.00;100126.06;21152854;28;20108;-70
2022/06/27 04:33:29;;;;;;;17.27;13.25;;;;;;;17.45;100.00;100154.50;21151202;28;20054;-70
2022/06/27 04:43:37;;;;;;;15.90;12.52;;;;;;;17.67;100.00;100176.34;21151934;28;20072;-70
2022/06/27 04:53:40;;;;;;;14.68;12.32;;;;;;;17.73;100.00;100167.31;21151164;28;20407;-70
2022/06/27 05:03:41;;;;;;;15.38;11.70;;;;;;;17.65;100.00;100143.81;21150024;28;20428;-69
2022/06/27 05:13:43;;;;;;;17.70;13.52;;;;;;;17.83;100.00;100157.97;21149576;28;20138;-70
2022/06/27 05:23:44;;;;;;;15.30;13.10;;;;;;;18.01;100.00;100201.22;21149674;28;20445;-69
2022/06/27 05:33:46;;;;;;;14.43;11.07;;;;;;;18.17;100.00;100212.78;21157393;28;20051;-69
2022/06/27 05:43:48;;;;;;;14.88;10.57;;;;;;;18.34;100.00;100216.38;21163497;28;20051;-70
2022/06/27 05:53:50;;;;;;;10.55;8.35;;;;;;;18.22;100.00;100224.94;21167438;28;20051;-67
2022/06/27 06:03:52;;;;;;;10.50;7.55;;;;;;;18.15;100.00;100241.13;21166938;28;20059;-67
2022/06/27 06:13:54;;;;;;;8.60;6.15;;;;;;;18.33;100.00;100242.00;21162590;28;20052;-72
2022/06/27 06:23:56;;;;;;;8.45;6.65;;;;;;;18.74;100.00;100257.66;21162652;28;20520;-74
2022/06/27 06:33:57;;;;;;;8.30;6.35;;;;;;;18.95;100.00;100258.31;21159983;28;20040;-68
2022/06/27 06:43:59;;;;;;;10.15;7.30;;;;;;;18.90;100.00;100265.66;21141811;28;20055;-69
2022/06/27 06:54:04;;;;;;;11.23;9.18;;;;;;;18.78;100.00;100276.91;21070063;28;20098;-69
2022/06/27 07:04:05;;;;;;;14.80;9.52;;;;;;;19.02;100.00;100273.00;21063704;28;20101;-71
2022/06/27 07:14:07;;;;;;;12.10;9.57;;;;;;;19.40;100.00;100243.50;21057804;28;20044;-71
2022/06/27 07:24:09;;;;;;;11.02;8.82;;;;;;;19.70;100.00;100248.97;21058480;28;20036;-68
2022/06/27 07:34:12;;;;;;;9.02;6.70;;;;;;;19.59;100.00;100286.69;21063385;28;20059;-71
2022/06/27 07:44:13;;;;;;;8.57;6.80;;;;;;;19.54;100.00;100303.84;21062761;28;20527;-71
2022/06/27 07:54:16;;;;;;;10.30;7.55;;;;;;;19.43;100.00;100293.81;21061745;28;20344;-71
2022/06/27 08:04:18;;;;;;;10.45;7.90;;;;;;;19.45;100.00;100297.22;21061130;28;20361;-72
2022/06/27 08:14:20;;;;;;;11.05;8.00;;;;;;;19.63;100.00;100298.91;21063922;28;20577;-71
2022/06/27 08:24:22;;;;;;;8.48;7.10;;;;;;;20.18;100.00;100319.75;21059324;28;20044;-75
2022/06/27 08:34:24;;;;;;;8.65;6.60;;;;;;;20.82;100.00;100348.94;21060471;28;20040;-70
2022/06/27 08:44:28;;;;;;;7.78;5.85;;;;;;;20.06;100.00;100368.28;21059669;28;20460;-71
2022/06/27 08:54:29;;;;;;;8.57;6.65;;;;;;;20.19;100.00;100344.53;21057587;28;20607;-71
2022/06/27 09:04:56;;;;;;;8.88;6.82;;;;;;;20.98;100.00;100360.38;21072016;28;20069;-77
2022/06/27 09:14:57;;;;;;;9.52;7.85;;;;;;;20.68;100.00;100405.59;21065765;28;20439;-72
2022/06/27 09:25:21;;;;;;;10.57;8.45;;;;;;;20.57;100.00;100411.53;21055556;28;20044;-70
2022/06/27 09:35:34;;;;;;;13.37;9.97;;;;;;;20.39;100.00;100410.75;21054878;28;20142;-71
2022/06/27 09:45:37;;;;;;;12.77;10.05;;;;;;;20.70;100.00;100409.06;21056593;28;20052;-74
2022/06/27 09:55:48;;;;;;;11.35;9.48;;;;;;;21.73;100.00;100431.28;21056195;28;20052;-69
2022/06/27 10:05:50;;;;;;;9.95;8.18;;;;;;;21.70;100.00;100460.81;21055464;28;20056;-73
2022/06/27 10:15:53;;;;;;;12.98;7.43;;;;;;;21.17;100.00;100472.81;21057207;28;20052;-71
2022/06/27 10:25:56;;;;;;;10.23;7.80;;;;;;;20.88;100.00;100465.66;21074130;22;20056;-85
2022/06/27 10:46:09;;;;;;;14.05;9.55;;;;;;;20.77;100.00;100497.34;20915709;28;20073;-84
2022/06/27 10:56:26;;;;;;;11.30;8.40;;;;;;;20.93;100.00;100477.75;20896120;28;20045;-84
2022/06/27 11:06:27;;;;;;;12.23;7.55;;;;;;;21.12;100.00;100493.53;20904601;22;20128;-69
2022/06/27 11:16:33;;;;;;;9.48;6.43;;;;;;;21.40;100.00;100476.81;20900637;28;20053;-68
2022/06/27 11:26:38;;;;;;;9.30;5.03;;;;;;;21.73;100.00;100481.94;20898706;28;20076;-69
2022/06/27 11:36:39;;;;;;;8.05;4.95;;;;;;;22.01;100.00;100474.91;20897002;28;20505;-70
2022/06/27 11:46:45;;;;;;;6.97;4.72;;;;;;;22.23;100.00;100472.66;20877672;28;20395;-69
2022/06/27 11:56:49;;;;;;;7.80;4.57;;;;;;;22.18;100.00;100482.75;20896734;28;20052;-69
2022/06/27 12:06:58;;;;;;;6.33;4.60;;;;;;;21.72;100.00;100469.56;20895036;28;20434;-68
2022/06/27 12:17:00;;;;;;;8.38;5.15;;;;;;;20.96;100.00;100480.25;20895482;28;20514;-68
2022/06/27 12:27:02;;;;;;;7.88;4.47;;;;;;;20.87;100.00;100495.88;20894698;28;20056;-68
2022/06/27 12:37:03;;;;;;;5.15;3.38;;;;;;;20.98;100.00;100504.09;20892665;28;20052;-68
2022/06/27 12:47:05;;;;;;;8.80;3.60;;;;;;;20.85;100.00;100503.13;20892684;28;20053;-66
2022/06/27 12:57:06;;;;;;;6.30;4.40;;;;;;;20.53;100.00;100527.03;20892170;28;20159;-66
2022/06/27 13:07:08;;;;;;;6.38;4.25;;;;;;;20.91;100.00;100510.75;20892656;28;20053;-65
2022/06/27 13:17:10;;;;;;;8.65;4.20;;;;;;;21.17;100.00;100491.44;20892800;28;20048;-67
2022/06/27 13:27:11;;;;;;;6.72;4.80;;;;;;;21.24;100.00;100499.97;20891673;28;20049;-66
2022/06/27 13:37:13;;;;;;;11.70;4.20;;;;;;;21.13;100.00;100550.31;20889997;28;20060;-66
2022/06/27 13:47:15;;;;;;;7.40;5.25;;;;;;;20.91;100.00;100556.00;20890709;28;20056;-66
2022/06/27 13:57:17;;;;;;;7.05;5.18;;;;;;;21.45;100.00;100562.66;20902384;28;20163;-67
2022/06/27 14:07:39;;;;;;;7.78;5.82;;;;;;;21.45;100.00;100565.31;20904952;28;20484;-68
2022/06/27 14:17:41;;;;;;;7.00;5.00;;;;;;;21.69;100.00;100560.34;20904104;28;20079;-68
2022/06/27 14:27:43;;;;;;;7.38;5.10;;;;;;;22.37;100.00;100556.28;20903913;28;20390;-68
2022/06/27 14:37:45;;;;;;;5.78;4.32;;;;;;;22.59;100.00;100562.00;20902503;28;20053;-70
2022/06/27 14:47:46;;;;;;;5.93;4.30;;;;;;;22.22;100.00;100558.94;20900826;28;20049;-70
2022/06/27 14:57:48;;;;;;;6.47;3.30;;;;;;;21.75;100.00;100570.66;20900799;28;20052;-70
2022/06/27 15:07:50;;;;;;;4.43;2.30;;;;;;;21.77;100.00;100560.75;20900392;28;20075;-71
2022/06/27 15:17:53;;;;;;;4.75;1.92;;;;;;;21.83;100.00;100558.69;20900179;28;20111;-70
2022/06/27 15:27:54;;;;;;;2.53;1.33;;;;;;;21.65;100.00;100558.81;20898957;28;20498;-70
2022/06/27 15:37:56;;;;;;;3.85;2.13;;;;;;;22.29;100.00;100556.78;20894529;28;20489;-71
2022/06/27 15:48:01;;;;;;;4.97;1.60;;;;;;;22.18;100.00;100557.44;20901030;28;20053;-71
2022/06/27 15:58:07;;;;;;;2.58;1.15;;;;;;;22.46;100.00;100561.03;20898433;28;20537;-72
2022/06/27 16:08:08;;;;;;;4.22;1.70;;;;;;;21.90;100.00;100589.38;20895433;28;20048;-69
2022/06/27 16:18:11;;;;;;;3.08;1.20;;;;;;;21.65;100.00;100596.13;20897724;28;20485;-70
2022/06/27 16:28:13;;;;;;;4.97;1.40;;;;;;;22.68;100.00;100606.78;20895111;28;20250;-72
2022/06/27 16:38:15;;;;;;;1.58;0.90;;;;;;;22.45;88.18;100602.03;20895267;28;20096;-71
2022/06/27 16:48:19;;;;;;;2.47;1.20;;;;;;;21.99;91.41;100596.78;20898849;28;20421;-71
2022/06/27 16:58:24;;;;;;;2.45;0.93;;;;;;;22.06;92.51;100611.47;20892239;28;20083;-76
2022/06/27 17:08:25;;;;;;;2.38;1.10;;;;;;;22.42;98.78;100610.22;20892260;28;20099;-74
2022/06/27 17:18:28;;;;;;;2.15;1.10;;;;;;;22.28;99.15;100619.09;20889943;28;20493;-73
2022/06/27 17:28:29;;;;;;;1.70;1.00;;;;;;;21.90;95.66;100621.34;20897284;28;20095;-70
2022/06/27 17:38:30;;;;;;;5.55;1.52;;;;;;;21.92;100.00;100646.97;20890235;28;20049;-70
2022/06/27 17:48:32;;;;;;;4.93;1.48;;;;;;;21.70;100.00;100646.47;20894664;28;20048;-83
2022/06/27 17:58:34;;;;;;;2.25;1.10;;;;;;;21.48;100.00;100628.22;20905844;28;20045;-69
2022/06/27 18:08:35;;;;;;;5.97;1.15;;;;;;;21.42;100.00;100657.91;20904335;28;20045;-75
2022/06/27 18:18:37;;;;;;;1.58;1.02;;;;;;;21.35;100.00;100651.19;20903947;28;20049;-71
2022/06/27 18:28:38;;;;;;;2.17;1.23;;;;;;;21.18;100.00;100649.44;20913848;28;20068;-69
2022/06/27 18:38:40;;;;;;;2.33;1.13;;;;;;;20.90;100.00;100655.44;20908829;28;20053;-71
2022/06/27 18:48:42;;;;;;;3.28;1.05;;;;;;;20.61;100.00;100676.47;20903535;28;20677;-70
2022/06/27 18:58:43;;;;;;;6.03;1.60;;;;;;;20.30;100.00;100692.28;20902236;28;20044;-79
2022/06/27 19:08:45;;;;;;;3.42;2.00;;;;;;;20.20;100.00;100718.47;20900275;28;20057;-70
2022/06/27 19:18:46;;;;;;;3.47;1.33;;;;;;;20.11;100.00;100743.72;20900383;28;20049;-69
2022/06/27 19:28:49;;;;;;;3.45;1.20;;;;;;;20.03;100.00;100740.59;20898918;28;20045;-75
2022/06/27 19:38:51;;;;;;;2.15;1.10;;;;;;;19.89;100.00;100729.78;20898125;28;20060;-71
2022/06/27 19:48:52;;;;;;;4.55;1.50;;;;;;;19.79;100.00;100761.25;20897791;28;20048;-77
2022/06/27 19:58:54;;;;;;;4.35;1.55;;;;;;;19.70;100.00;100762.56;20897208;28;20080;-70
2022/06/27 20:08:56;;;;;;;2.35;1.20;;;;;;;19.65;100.00;100769.88;20894048;28;20568;-74
2022/06/27 20:18:58;;;;;;;3.75;1.27;;;;;;;19.54;100.00;100798.69;20894748;28;20053;-67
2022/06/27 20:28:59;;;;;;;4.18;1.38;;;;;;;19.48;100.00;100818.44;20893001;28;20056;-70
2022/06/27 20:39:01;;;;;;;3.35;1.25;;;;;;;19.31;100.00;100801.56;20893044;28;20080;-69
2022/06/27 20:49:03;;;;;;;3.88;1.00;;;;;;;19.20;100.00;100805.56;20894159;28;20064;-80
2022/06/27 20:59:08;;;;;;;4.57;1.10;;;;;;;19.14;100.00;100779.28;20892413;28;20099;-70
2022/06/27 21:19:35;;;;;;;3.08;1.52;;;;;;;18.96;100.00;100802.19;20809870;28;20103;-72
2022/06/27 21:29:37;;;;;;;2.85;1.35;;;;;;;18.86;100.00;100830.06;20808715;28;20545;-69
2022/06/27 21:39:39;;;;;;;2.55;1.10;;;;;;;18.64;100.00;100838.06;20808380;28;20428;-71
2022/06/27 21:49:40;;;;;;;4.25;1.27;;;;;;;18.35;100.00;100828.66;20808631;28;20104;-71
2022/06/27 21:59:42;;;;;;;2.60;1.27;;;;;;;18.10;100.00;100844.69;20807381;28;20136;-71
2022/06/27 22:09:45;;;;;;;2.80;1.05;;;;;;;17.95;100.00;100832.91;20812589;28;20050;-72
2022/06/27 22:19:47;;;;;;;4.45;1.30;;;;;;;17.82;100.00;100836.97;20829346;28;20053;-71
2022/06/27 22:29:49;;;;;;;4.07;1.50;;;;;;;17.60;100.00;100842.19;20829299;28;20045;-71
2022/06/27 22:39:50;;;;;;;3.72;1.33;;;;;;;17.54;100.00;100868.03;20827373;28;20498;-70
2022/06/27 22:49:52;;;;;;;5.55;1.35;;;;;;;17.39;100.00;100872.97;20827728;28;20049;-71
2022/06/27 22:59:53;;;;;;;6.43;1.73;;;;;;;17.27;100.00;100885.78;20826926;28;20068;-70
2022/06/27 23:09:55;;;;;;;2.80;1.40;;;;;;;17.26;100.00;100878.75;20824994;28;20054;-69
2022/06/27 23:19:57;;;;;;;3.70;1.35;;;;;;;17.16;100.00;100883.53;20824125;28;20468;-70
2022/06/27 23:29:59;;;;;;;2.45;1.33;;;;;;;17.09;100.00;100882.84;20824045;28;20049;-70
2022/06/27 23:40:01;;;;;;;3.05;1.63;;;;;;;16.99;100.00;100902.59;20823979;28;20053;-71
2022/06/27 23:50:02;;;;;;;3.80;1.63;;;;;;;16.81;100.00;100900.56;20824636;28;20108;-71
